ID Time Temp Humidity Light PM2.5 PM10 Voltage Extra Firmware Position Fcnt TTN version Gateways Distance RSSI LSNR Radiosettings
2026-05-09 08:50:55 11.5625°C 57.3125% 3.3V v5 No position 14751 ttn.v3 - -99 3.25 867.7MHz, SF9BW125, 4/5CR
2026-05-09 08:35:37 10.875°C 56.125% 3.3V v5 No position 14750 ttn.v3 - -107 0.25 868.3MHz, SF9BW125, 4/5CR
- -105 -6.75 868.3MHz, SF9BW125, 4/5CR
2026-05-09 08:20:19 10.3125°C 55.5% 3.3V v5 No position 14749 ttn.v3 - -109 2.75 867.5MHz, SF9BW125, 4/5CR
- -92 -13.75 867.5MHz, SF9BW125, 4/5CR
2026-05-09 08:05:01 9.8125°C 55% 3.3V v5 No position 14748 ttn.v3 - -113 1 868.1MHz, SF9BW125, 4/5CR
- -105 -2.5 868.1MHz, SF9BW125, 4/5CR
2026-05-09 07:49:44 9.375°C 54.8125% 3.3V v5 No position 14747 ttn.v3 - -98 2.25 867.3MHz, SF9BW125, 4/5CR
2026-05-09 07:34:26 9°C 54.875% 3.3V v5 No position 14746 ttn.v3 - -108 -0.25 868.5MHz, SF9BW125, 4/5CR
2026-05-09 07:19:09 8.625°C 55.0625% 3.3V v5 No position 14745 ttn.v3 - -108 2.25 867.1MHz, SF9BW125, 4/5CR
- -102 2 867.1MHz, SF9BW125, 4/5CR
2026-05-09 07:03:52 8.4375°C 55.375% 3.3V v5 No position 14744 ttn.v3 - -111 1.75 868.3MHz, SF9BW125, 4/5CR
- -105 -2 868.3MHz, SF9BW125, 4/5CR
2026-05-09 06:48:34 8.3125°C 55.625% 3.3V v5 No position 14743 ttn.v3 - -113 2 867.9MHz, SF9BW125, 4/5CR
- -102 0.75 867.9MHz, SF9BW125, 4/5CR
2026-05-09 06:33:17 8.1875°C 55.875% 3.3V v5 No position 14742 ttn.v3 - -109 2.5 868.1MHz, SF9BW125, 4/5CR
- -102 -2 868.1MHz, SF9BW125, 4/5CR
2026-05-09 06:18:00 8.125°C 56.125% 3.3V v5 No position 14741 ttn.v3 - -109 3 867.7MHz, SF9BW125, 4/5CR
- -102 2 867.7MHz, SF9BW125, 4/5CR
2026-05-09 06:02:43 8.125°C 56.4375% 3.3V v5 No position 14740 ttn.v3 - -105 -4.75 868.5MHz, SF9BW125, 4/5CR
2026-05-09 05:47:26 8.125°C 56.625% 3.3V v5 No position 14739 ttn.v3 - -107 2.25 867.5MHz, SF9BW125, 4/5CR
- -101 1.75 867.5MHz, SF9BW125, 4/5CR
2026-05-09 05:32:09 8.3125°C 57% 3.3V v5 No position 14738 ttn.v3 - -108 1.25 868.3MHz, SF9BW125, 4/5CR
- -105 -3.25 868.3MHz, SF9BW125, 4/5CR
2026-05-09 05:16:51 8.375°C 57.1875% 3.3V v5 No position 14737 ttn.v3 - -107 2.75 867.3MHz, SF9BW125, 4/5CR
- -93 -8.25 867.3MHz, SF9BW125, 4/5CR
2026-05-09 05:01:34 8.4375°C 57.75% 3.3V v5 No position 14736 ttn.v3 - -105 -0.75 868.1MHz, SF9BW125, 4/5CR
- -126 -14.25 868.1MHz, SF9BW125, 4/5CR
2026-05-09 04:46:17 8.625°C 58.1875% 3.3V v5 No position 14735 ttn.v3 - -101 3.25 867.1MHz, SF9BW125, 4/5CR
2026-05-09 04:30:59 8.75°C 58.625% 3.3V v5 No position 14734 ttn.v3 - -111 -1.25 868.5MHz, SF9BW125, 4/5CR
- -105 -6.25 868.5MHz, SF9BW125, 4/5CR
2026-05-09 04:15:42 8.875°C 59.3125% 3.3V v5 No position 14733 ttn.v3 - -111 1.75 867.9MHz, SF9BW125, 4/5CR
- -105 0.75 867.9MHz, SF9BW125, 4/5CR
2026-05-09 04:00:24 9.0625°C 59.875% 3.3V v5 No position 14732 ttn.v3 - -111 1.5 868.3MHz, SF9BW125, 4/5CR
2026-05-09 03:45:07 9.375°C 60.5625% 3.3V v5 No position 14731 ttn.v3 - -109 3 867.7MHz, SF9BW125, 4/5CR
- -101 2.25 867.7MHz, SF9BW125, 4/5CR
2026-05-09 03:29:49 9.5625°C 61.4375% 3.3V v5 No position 14730 ttn.v3 - -111 1.75 868.1MHz, SF9BW125, 4/5CR
- -102 -1.75 868.1MHz, SF9BW125, 4/5CR
2026-05-09 03:14:31 9.8125°C 62.25% 3.3V v5 No position 14729 ttn.v3 - -109 2.5 867.5MHz, SF9BW125, 4/5CR
- -102 2 867.5MHz, SF9BW125, 4/5CR
2026-05-09 02:59:13 9.9375°C 67.875% 3.3V v5 No position 14728 ttn.v3 - -111 0.25 868.5MHz, SF9BW125, 4/5CR
- -103 -8.25 868.5MHz, SF9BW125, 4/5CR
2026-05-09 02:43:56 10.125°C 76% 3.3V v5 No position 14727 ttn.v3 - -102 3.5 867.3MHz, SF9BW125, 4/5CR
2026-05-09 02:28:38 10.375°C 80.625% 3.3V v5 No position 14726 ttn.v3 - -109 0.75 868.3MHz, SF9BW125, 4/5CR
- -102 -2.75 868.3MHz, SF9BW125, 4/5CR
2026-05-09 02:13:20 10.5°C 85.9375% 3.3V v5 No position 14725 ttn.v3 - -102 3 867.1MHz, SF9BW125, 4/5CR
- -113 2.5 867.1MHz, SF9BW125, 4/5CR
2026-05-09 01:58:01 10.75°C 88.625% 3.3V v5 No position 14724 ttn.v3 - -111 2.75 868.1MHz, SF9BW125, 4/5CR
- -103 -0.25 868.1MHz, SF9BW125, 4/5CR
2026-05-09 01:42:43 11°C 89.875% 3.3V v5 No position 14723 ttn.v3 - -113 2.25 867.9MHz, SF9BW125, 4/5CR
- -103 1.25 867.9MHz, SF9BW125, 4/5CR
2026-05-09 01:27:25 11.25°C 90% 3.3V v5 No position 14722 ttn.v3 - -111 -1.5 868.5MHz, SF9BW125, 4/5CR
- -96 -6.5 868.5MHz, SF9BW125, 4/5CR
2026-05-09 01:12:07 11.3125°C 89.75% 3.3V v5 No position 14721 ttn.v3 - -102 1.75 867.7MHz, SF9BW125, 4/5CR
2026-05-09 00:56:48 11.375°C 89.4375% 3.3V v5 No position 14720 ttn.v3 - -103 0.75 868.3MHz, SF9BW125, 4/5CR
2026-05-09 00:41:30 11.5°C 88.875% 3.3V v5 No position 14719 ttn.v3 - -109 2 867.5MHz, SF9BW125, 4/5CR
- -90 -9.75 867.5MHz, SF9BW125, 4/5CR
2026-05-09 00:26:12 11.5°C 87.8125% 3.3V v5 No position 14718 ttn.v3 - -113 2.5 868.1MHz, SF9BW125, 4/5CR
- -105 1.5 868.1MHz, SF9BW125, 4/5CR
2026-05-09 00:10:53 11.4375°C 83.0625% 3.3V v5 No position 14717 ttn.v3 - -93 -12 867.3MHz, SF9BW125, 4/5CR
2026-05-08 23:55:35 11.5°C 80.375% 3.3V v5 No position 14716 ttn.v3 - -111 0.25 868.5MHz, SF9BW125, 4/5CR
- -103 -4.5 868.5MHz, SF9BW125, 4/5CR
2026-05-08 23:40:16 11.6875°C 83.9375% 3.3V v5 No position 14715 ttn.v3 - -102 3 867.1MHz, SF9BW125, 4/5CR
- -113 2.5 867.1MHz, SF9BW125, 4/5CR
2026-05-08 23:24:58 11.875°C 84.9375% 3.3V v5 No position 14714 ttn.v3 - -109 1.25 868.3MHz, SF9BW125, 4/5CR
- -105 -4 868.3MHz, SF9BW125, 4/5CR
2026-05-08 23:09:39 12.0625°C 88.75% 3.3V v5 No position 14713 ttn.v3 - -103 1.75 867.9MHz, SF9BW125, 4/5CR
- -126 -12.25 867.9MHz, SF9BW125, 4/5CR
2026-05-08 22:54:20 12.3125°C 91.375% 3.3V v5 No position 14712 ttn.v3 - -109 2 868.1MHz, SF9BW125, 4/5CR
- -105 -2.75 868.1MHz, SF9BW125, 4/5CR
2026-05-08 22:39:02 12.5625°C 91.75% 3.3V v5 No position 14711 ttn.v3 - -109 3.25 867.7MHz, SF9BW125, 4/5CR
- -102 3 867.7MHz, SF9BW125, 4/5CR
2026-05-08 22:23:43 12.875°C 91.5% 3.3V v5 No position 14710 ttn.v3 - -109 1.25 868.5MHz, SF9BW125, 4/5CR
2026-05-08 22:08:23 13.3125°C 90.8125% 3.3V v5 No position 14709 ttn.v3 - -106 3.25 867.5MHz, SF9BW125, 4/5CR
- -102 2 867.5MHz, SF9BW125, 4/5CR
2026-05-08 21:53:04 13.875°C 87.4375% 3.3V v5 No position 14708 ttn.v3 - -108 1.25 868.3MHz, SF9BW125, 4/5CR
- -103 -4.75 868.3MHz, SF9BW125, 4/5CR
2026-05-08 21:37:45 14.25°C 84.8125% 3.3V v5 No position 14707 ttn.v3 - -101 3.75 867.3MHz, SF9BW125, 4/5CR
- -107 2.5 867.3MHz, SF9BW125, 4/5CR
2026-05-08 21:22:25 14.875°C 79.25% 3.3V v5 No position 14706 ttn.v3 - -111 2.25 868.1MHz, SF9BW125, 4/5CR
- -105 0 868.1MHz, SF9BW125, 4/5CR
2026-05-08 21:07:05 15.5625°C 74.3125% 3.3V v5 No position 14705 ttn.v3 - -103 2.75 867.1MHz, SF9BW125, 4/5CR
- -111 2.25 867.1MHz, SF9BW125, 4/5CR
2026-05-08 20:51:44 16.125°C 71.375% 3.3V v5 No position 14704 ttn.v3 - -111 -0.25 868.5MHz, SF9BW125, 4/5CR
2026-05-08 20:36:24 17.1875°C 66.125% 3.3V v5 No position 14703 ttn.v3 - -109 2 867.9MHz, SF9BW125, 4/5CR
- -103 -1.25 867.9MHz, SF9BW125, 4/5CR
2026-05-08 20:21:02 19°C 58.125% 3.3V v5 No position 14702 ttn.v3 - -111 1 868.3MHz, SF9BW125, 4/5CR
- -105 -4.5 868.3MHz, SF9BW125, 4/5CR
2026-05-08 20:05:41 18.625°C 59.625% 3.3V v5 No position 14701 ttn.v3 - -111 2.75 867.7MHz, SF9BW125, 4/5CR
- -102 2.5 867.7MHz, SF9BW125, 4/5CR
2026-05-08 19:50:20 17.75°C 62.75% 3.3V v5 No position 14700 ttn.v3 - -113 2 868.1MHz, SF9BW125, 4/5CR
- -107 -1.75 868.1MHz, SF9BW125, 4/5CR
2026-05-08 19:35:00 17.1875°C 65.6875% 3.3V v5 No position 14699 ttn.v3 - -111 2.5 867.5MHz, SF9BW125, 4/5CR
- -91 -10.5 867.5MHz, SF9BW125, 4/5CR
2026-05-08 19:19:41 17.375°C 66.1875% 3.3V v5 No position 14698 ttn.v3 - -111 -2.25 868.5MHz, SF9BW125, 4/5CR
2026-05-08 19:04:18 17.5°C 64% 3.3V v5 No position 14697 ttn.v3 - -108 2 867.3MHz, SF9BW125, 4/5CR
- -94 -9.25 867.3MHz, SF9BW125, 4/5CR
2026-05-08 18:48:57 17.5°C 63% 3.3V v5 No position 14696 ttn.v3 - -105 -9 868.3MHz, SF9BW125, 4/5CR
2026-05-08 18:33:37 17.625°C 60.8125% 3.3V v5 No position 14695 ttn.v3 - -100 3 867.1MHz, SF9BW125, 4/5CR
- -111 2.25 867.1MHz, SF9BW125, 4/5CR
2026-05-08 18:18:16 17.625°C 57.8125% 3.3V v5 No position 14694 ttn.v3 - -102 0.5 868.1MHz, SF9BW125, 4/5CR
- -110 0.5 868.1MHz, SF9BW125, 4/5CR
2026-05-08 18:02:55 17.6875°C 58.25% 3.3V v5 No position 14693 ttn.v3 - -102 1.75 867.9MHz, SF9BW125, 4/5CR
- -108 1.75 867.9MHz, SF9BW125, 4/5CR
2026-05-08 17:47:34 17.75°C 58.4375% 3.3V v5 No position 14692 ttn.v3 - -109 -0.5 868.5MHz, SF9BW125, 4/5CR
- -105 -3.75 868.5MHz, SF9BW125, 4/5CR
2026-05-08 17:32:13 17.875°C 55.125% 3.3V v5 No position 14691 ttn.v3 - -109 2.75 867.7MHz, SF9BW125, 4/5CR
- -94 -6.25 867.7MHz, SF9BW125, 4/5CR
2026-05-08 17:16:52 18°C 53.1875% 3.3V v5 No position 14690 ttn.v3 - -111 0.5 868.3MHz, SF9BW125, 4/5CR
- -91 -13.25 868.3MHz, SF9BW125, 4/5CR
2026-05-08 17:01:31 18.0625°C 54.8125% 3.3V v5 No position 14689 ttn.v3 - -108 3 867.5MHz, SF9BW125, 4/5CR
- -102 1 867.5MHz, SF9BW125, 4/5CR
2026-05-08 16:48:14 18.125°C 55.3125% 3.3V v5 No position 14688 ttn.v3 - -107 2 868.1MHz, SF12BW125, 4/5CR
- -107 -5.25 868.1MHz, SF12BW125, 4/5CR
2026-05-08 16:30:51 18.125°C 59.3125% 3.3V v5 52.1188 / 5.07626 14687 ttn.v3 - -109 4.25 867.3MHz, SF9BW125, 4/5CR
0.103km -101 -2.5 867.3MHz, SF9BW125, 4/5CR
2026-05-08 16:15:30 18.125°C 56.3125% 3.3V v5 52.1188 / 5.07626 14686 ttn.v3 - -109 -0.25 868.5MHz, SF9BW125, 4/5CR
2026-05-08 16:00:09 18.25°C 56.5% 3.3V v5 52.1188 / 5.07626 14685 ttn.v3 - -111 3.75 867.1MHz, SF9BW125, 4/5CR
0.103km -103 -0.5 867.1MHz, SF9BW125, 4/5CR
2026-05-08 15:44:48 18.25°C 57.0625% 3.3V v5 52.1188 / 5.07626 14684 ttn.v3 0.103km -105 -2.25 868.3MHz, SF9BW125, 4/5CR
2026-05-08 15:29:27 18.625°C 54.5625% 3.3V v5 52.1188 / 5.07626 14683 ttn.v3 - -107 2 867.9MHz, SF9BW125, 4/5CR
0.103km -103 1.5 867.9MHz, SF9BW125, 4/5CR
2026-05-08 15:14:06 18.6875°C 55.6875% 3.3V v5 52.1188 / 5.07626 14682 ttn.v3 - -111 2.5 868.1MHz, SF9BW125, 4/5CR
0.103km -93 -14.25 868.1MHz, SF9BW125, 4/5CR
2026-05-08 14:58:44 18.5625°C 54.4375% 3.3V v5 52.1188 / 5.07626 14681 ttn.v3 - -108 2.25 867.7MHz, SF9BW125, 4/5CR
0.103km -100 1 867.7MHz, SF9BW125, 4/5CR
2026-05-08 14:43:23 18.875°C 56.0625% 3.3V v5 52.1188 / 5.07626 14680 ttn.v3 - -109 1 868.5MHz, SF9BW125, 4/5CR
2026-05-08 14:28:01 19.0625°C 54.4375% 3.3V v5 52.1188 / 5.07626 14679 ttn.v3 - -109 2.75 867.5MHz, SF9BW125, 4/5CR
0.103km -102 0.75 867.5MHz, SF9BW125, 4/5CR
2026-05-08 14:12:40 19.0625°C 50.75% 3.3V v5 52.1188 / 5.07626 14678 ttn.v3 - -113 -0.25 868.3MHz, SF9BW125, 4/5CR
0.103km -105 -2 868.3MHz, SF9BW125, 4/5CR
2026-05-08 13:57:18 19.4375°C 48.625% 3.3V v5 52.1188 / 5.07626 14677 ttn.v3 0.103km -103 1 867.3MHz, SF9BW125, 4/5CR
- -111 -1.75 867.3MHz, SF9BW125, 4/5CR
2026-05-08 13:41:56 20.125°C 48.9375% 3.3V v5 52.1188 / 5.07626 14676 ttn.v3 - -114 -0.5 868.1MHz, SF9BW125, 4/5CR
0.103km -93 -12.75 868.1MHz, SF9BW125, 4/5CR
2026-05-08 13:26:34 21°C 49.1875% 3.3V v5 52.1188 / 5.07626 14675 ttn.v3 - -114 0 867.1MHz, SF9BW125, 4/5CR
2026-05-08 13:11:12 21.5°C 48.25% 3.3V v5 52.1188 / 5.07626 14674 ttn.v3 - -109 -0.25 868.5MHz, SF9BW125, 4/5CR
0.103km -105 -8 868.5MHz, SF9BW125, 4/5CR
2026-05-08 12:55:50 22.125°C 49% 3.3V v5 52.1188 / 5.07626 14673 ttn.v3 0.103km -103 -0.75 867.9MHz, SF9BW125, 4/5CR
2026-05-08 12:40:28 20.6875°C 52.125% 3.3V v5 52.1188 / 5.07626 14672 ttn.v3 0.103km -102 -0.75 868.3MHz, SF9BW125, 4/5CR
- -111 -4.25 868.3MHz, SF9BW125, 4/5CR
2026-05-08 12:25:06 19.6875°C 56.4375% 3.3V v5 52.1188 / 5.07626 14671 ttn.v3 0.103km -102 3 867.7MHz, SF9BW125, 4/5CR
- -109 -0.75 867.7MHz, SF9BW125, 4/5CR
2026-05-08 12:09:45 18.3125°C 62.1875% 3.3V v5 52.1188 / 5.07626 14670 ttn.v3 0.103km -105 0.75 868.1MHz, SF9BW125, 4/5CR
2026-05-08 11:54:25 17.625°C 64.0625% 3.3V v5 52.1188 / 5.07626 14669 ttn.v3 0.103km -101 2.5 867.5MHz, SF9BW125, 4/5CR
- -108 0 867.5MHz, SF9BW125, 4/5CR
2026-05-08 11:39:04 17°C 65.8125% 3.3V v5 52.1188 / 5.07626 14668 ttn.v3 - -109 0.25 868.5MHz, SF9BW125, 4/5CR
0.103km -105 -2.5 868.5MHz, SF9BW125, 4/5CR
2026-05-08 11:23:44 16.5°C 69.6875% 3.3V v5 52.1188 / 5.07626 14667 ttn.v3 - -111 1.75 867.3MHz, SF9BW125, 4/5CR
0.103km -94 -8.5 867.3MHz, SF9BW125, 4/5CR
2026-05-08 11:08:24 16°C 74% 3.3V v5 52.1188 / 5.07626 14666 ttn.v3 - -105 0.5 868.3MHz, SF9BW125, 4/5CR
0.103km -93 -10.75 868.3MHz, SF9BW125, 4/5CR
2026-05-08 10:53:04 15.5625°C 78.5625% 3.3V v5 52.1188 / 5.07626 14665 ttn.v3 0.103km -101 4 867.1MHz, SF9BW125, 4/5CR
2026-05-08 10:37:44 14.8125°C 81.9375% 3.3V v5 52.1188 / 5.07626 14664 ttn.v3 0.103km -103 2.25 868.1MHz, SF9BW125, 4/5CR
- -111 1 868.1MHz, SF9BW125, 4/5CR
2026-05-08 10:22:25 14.125°C 85.0625% 3.3V v5 52.1188 / 5.07626 14663 ttn.v3 0.103km -95 -10.5 867.9MHz, SF9BW125, 4/5CR
2026-05-08 10:07:06 13.6875°C 87.125% 3.3V v5 52.1188 / 5.07626 14662 ttn.v3 - -111 0.5 868.5MHz, SF9BW125, 4/5CR
0.103km -105 -1.25 868.5MHz, SF9BW125, 4/5CR
2026-05-08 09:51:47 13.1875°C 88.1875% 3.3V v5 52.1188 / 5.07626 14661 ttn.v3 - -108 2.5 867.7MHz, SF9BW125, 4/5CR
0.103km -102 1.25 867.7MHz, SF9BW125, 4/5CR
2026-05-08 09:36:28 12.5°C 88.1875% 3.3V v5 52.1188 / 5.07626 14660 ttn.v3 0.103km -102 1 868.3MHz, SF9BW125, 4/5CR
2026-05-08 09:21:09 12.25°C 87.75% 3.3V v5 52.1188 / 5.07626 14659 ttn.v3 - -108 3 867.5MHz, SF9BW125, 4/5CR
0.103km -93 -8 867.5MHz, SF9BW125, 4/5CR
2026-05-08 09:05:51 11.9375°C 86.5625% 3.3V v5 52.1188 / 5.07626 14658 ttn.v3 0.103km -100 2 868.1MHz, SF9BW125, 4/5CR
2026-05-08 08:50:32 11.625°C 84.1875% 3.3V v5 52.1188 / 5.07626 14657 ttn.v3 0.103km -101 5 867.3MHz, SF9BW125, 4/5CR
- -109 2 867.3MHz, SF9BW125, 4/5CR
2026-05-08 08:35:14 11.375°C 82.5625% 3.3V v5 52.1188 / 5.07626 14656 ttn.v3 0.103km -103 -0.25 868.5MHz, SF9BW125, 4/5CR
- -109 -0.75 868.5MHz, SF9BW125, 4/5CR
2026-05-08 08:19:56 11.125°C 80.8125% 3.3V v5 52.1188 / 5.07626 14655 ttn.v3 - -111 0.25 867.1MHz, SF9BW125, 4/5CR
0.103km -93 -7 867.1MHz, SF9BW125, 4/5CR
2026-05-08 08:04:38 11°C 78.4375% 3.3V v5 52.1188 / 5.07626 14654 ttn.v3 - -109 0.5 868.3MHz, SF9BW125, 4/5CR
0.103km -93 -9.25 868.3MHz, SF9BW125, 4/5CR
2026-05-08 07:49:19 10.875°C 76.4375% 3.3V v5 52.1188 / 5.07626 14653 ttn.v3 - -113 0 867.9MHz, SF9BW125, 4/5CR
0.103km -94 -7.5 867.9MHz, SF9BW125, 4/5CR
2026-05-08 07:34:01 10.8125°C 75.375% 3.3V v5 52.1188 / 5.07626 14652 ttn.v3 0.103km -105 1.75 868.1MHz, SF9BW125, 4/5CR
2026-05-08 07:18:43 10.75°C 74.1875% 3.3V v5 52.1188 / 5.07626 14651 ttn.v3 - -111 1.25 867.7MHz, SF9BW125, 4/5CR
0.103km -94 -8.25 867.7MHz, SF9BW125, 4/5CR
2026-05-08 07:03:25 10.6875°C 75.75% 3.3V v5 52.1188 / 5.07626 14650 ttn.v3 0.103km -101 0.25 868.5MHz, SF9BW125, 4/5CR
2026-05-08 06:48:07 10.6875°C 78.75% 3.3V v5 52.1188 / 5.07626 14649 ttn.v3 0.103km -99 3.25 867.5MHz, SF9BW125, 4/5CR
- -111 1.25 867.5MHz, SF9BW125, 4/5CR
2026-05-08 06:32:49 10.6875°C 83.4375% 3.3V v5 52.1188 / 5.07626 14648 ttn.v3 - -111 1.75 868.3MHz, SF9BW125, 4/5CR
0.103km -101 0 868.3MHz, SF9BW125, 4/5CR
2026-05-08 06:17:31 10.75°C 85.0625% 3.3V v5 52.1188 / 5.07626 14647 ttn.v3 0.103km -101 2.75 867.3MHz, SF9BW125, 4/5CR
- -109 2 867.3MHz, SF9BW125, 4/5CR
2026-05-08 06:02:13 10.875°C 87% 3.3V v5 52.1188 / 5.07626 14646 ttn.v3 0.103km -102 2.5 868.1MHz, SF9BW125, 4/5CR
2026-05-08 05:46:55 10.9375°C 87.1875% 3.3V v5 52.1188 / 5.07626 14645 ttn.v3 0.103km -99 6.25 867.1MHz, SF9BW125, 4/5CR
- -111 1.75 867.1MHz, SF9BW125, 4/5CR
2026-05-08 05:31:37 11.0625°C 88.125% 3.3V v5 52.1188 / 5.07626 14644 ttn.v3 - -111 -2 868.5MHz, SF9BW125, 4/5CR
0.103km -91 -12.25 868.5MHz, SF9BW125, 4/5CR
2026-05-08 05:16:19 11.125°C 89.5% 3.3V v5 52.1188 / 5.07626 14643 ttn.v3 0.103km -101 2.75 867.9MHz, SF9BW125, 4/5CR
- -109 -0.5 867.9MHz, SF9BW125, 4/5CR
2026-05-08 05:01:00 11.1875°C 90.1875% 3.3V v5 52.1188 / 5.07626 14642 ttn.v3 0.103km -103 2.25 868.3MHz, SF9BW125, 4/5CR
2026-05-08 04:45:42 11.25°C 90.5% 3.3V v5 52.1188 / 5.07626 14641 ttn.v3 - -111 2.5 867.7MHz, SF9BW125, 4/5CR
0.103km -94 -7.75 867.7MHz, SF9BW125, 4/5CR
2026-05-08 04:30:24 11.3125°C 90.8125% 3.3V v5 52.1188 / 5.07626 14640 ttn.v3 0.103km -105 -0.75 868.1MHz, SF9BW125, 4/5CR
2026-05-08 04:15:05 11.375°C 90.9375% 3.3V v5 52.1188 / 5.07626 14639 ttn.v3 0.103km -97 3.75 867.5MHz, SF9BW125, 4/5CR
- -108 -0.25 867.5MHz, SF9BW125, 4/5CR
2026-05-08 03:59:47 11.5625°C 91.3125% 3.3V v5 52.1188 / 5.07626 14638 ttn.v3 0.103km -102 0 868.5MHz, SF9BW125, 4/5CR
2026-05-08 03:44:29 11.625°C 91.1875% 3.3V v5 52.1188 / 5.07626 14637 ttn.v3 0.103km -97 5.75 867.3MHz, SF9BW125, 4/5CR
- -108 2 867.3MHz, SF9BW125, 4/5CR
2026-05-08 03:29:10 11.75°C 90.8125% 3.3V v5 52.1188 / 5.07626 14636 ttn.v3 - -111 0.75 868.3MHz, SF9BW125, 4/5CR
0.103km -105 -1.5 868.3MHz, SF9BW125, 4/5CR
2026-05-08 03:13:52 11.9375°C 90.5625% 3.3V v5 52.1188 / 5.07626 14635 ttn.v3 0.103km -101 5.75 867.1MHz, SF9BW125, 4/5CR
- -113 2 867.1MHz, SF9BW125, 4/5CR
2026-05-08 02:58:33 12°C 90.4375% 3.3V v5 52.1188 / 5.07626 14634 ttn.v3 0.103km -100 2.75 868.1MHz, SF9BW125, 4/5CR
2026-05-08 02:43:15 12.125°C 90.125% 3.3V v5 52.1188 / 5.07626 14633 ttn.v3 0.103km -102 3 867.9MHz, SF9BW125, 4/5CR
- -112 0 867.9MHz, SF9BW125, 4/5CR
2026-05-08 02:27:56 12.25°C 89.625% 3.3V v5 52.1188 / 5.07626 14632 ttn.v3 - -111 0 868.5MHz, SF9BW125, 4/5CR
0.103km -103 -0.5 868.5MHz, SF9BW125, 4/5CR
2026-05-08 02:12:37 12.3125°C 89.375% 3.3V v5 52.1188 / 5.07626 14631 ttn.v3 0.103km -96 4.75 867.7MHz, SF9BW125, 4/5CR
- -109 2.5 867.7MHz, SF9BW125, 4/5CR
2026-05-08 01:57:18 12.4375°C 88.9375% 3.3V v5 52.1188 / 5.07626 14630 ttn.v3 - -111 0.5 868.3MHz, SF9BW125, 4/5CR
0.103km -91 -10 868.3MHz, SF9BW125, 4/5CR
2026-05-08 01:42:00 12.5625°C 88.375% 3.3V v5 52.1188 / 5.07626 14629 ttn.v3 - -108 2.25 867.5MHz, SF9BW125, 4/5CR
0.103km -91 -6 867.5MHz, SF9BW125, 4/5CR
2026-05-08 01:26:41 12.625°C 88.25% 3.3V v5 52.1188 / 5.07626 14628 ttn.v3 - -111 0.5 868.1MHz, SF9BW125, 4/5CR
0.103km -95 -9.5 868.1MHz, SF9BW125, 4/5CR
- -127 -14.25 868.1MHz, SF9BW125, 4/5CR
2026-05-08 01:11:22 12.75°C 87.375% 3.3V v5 52.1188 / 5.07626 14627 ttn.v3 0.103km -89 -5.5 867.3MHz, SF9BW125, 4/5CR
2026-05-08 00:56:03 12.8125°C 87.125% 3.3V v5 52.1188 / 5.07626 14626 ttn.v3 - -111 -0.25 868.5MHz, SF9BW125, 4/5CR
2026-05-08 00:40:44 12.875°C 86.75% 3.3V v5 52.1188 / 5.07626 14625 ttn.v3 0.103km -94 -4.25 867.1MHz, SF9BW125, 4/5CR
2026-05-08 00:25:25 12.9375°C 85.875% 3.3V v5 52.1188 / 5.07626 14624 ttn.v3 - -111 1 868.3MHz, SF9BW125, 4/5CR
0.103km -93 -10.75 868.3MHz, SF9BW125, 4/5CR
2026-05-08 00:10:06 13.125°C 84.6875% 3.3V v5 52.1188 / 5.07626 14623 ttn.v3 - -112 -0.25 867.9MHz, SF9BW125, 4/5CR
0.103km -94 -6.75 867.9MHz, SF9BW125, 4/5CR
2026-05-07 23:54:47 13.25°C 83.75% 3.3V v5 52.1188 / 5.07626 14622 ttn.v3 0.103km -105 0.5 868.1MHz, SF9BW125, 4/5CR
- -113 0.5 868.1MHz, SF9BW125, 4/5CR
2026-05-07 23:39:28 13.3125°C 83.1875% 3.3V v5 52.1188 / 5.07626 14621 ttn.v3 0.103km -99 4.25 867.7MHz, SF9BW125, 4/5CR
- -108 1.5 867.7MHz, SF9BW125, 4/5CR
2026-05-07 23:24:09 13.5°C 81.5% 3.3V v5 52.1188 / 5.07626 14620 ttn.v3 - -111 0.5 868.5MHz, SF9BW125, 4/5CR
0.103km -102 -2.25 868.5MHz, SF9BW125, 4/5CR
2026-05-07 23:08:50 13.5625°C 80.4375% 3.3V v5 52.1188 / 5.07626 14619 ttn.v3 0.103km -99 3.5 867.5MHz, SF9BW125, 4/5CR
- -111 1.25 867.5MHz, SF9BW125, 4/5CR
2026-05-07 22:53:31 13.6875°C 79.5% 3.3V v5 52.1188 / 5.07626 14618 ttn.v3 - -111 0.25 868.3MHz, SF9BW125, 4/5CR
2026-05-07 22:38:11 14.0625°C 77.3125% 3.3V v5 52.1188 / 5.07626 14617 ttn.v3 0.103km -99 4 867.3MHz, SF9BW125, 4/5CR
- -109 2.5 867.3MHz, SF9BW125, 4/5CR
2026-05-07 22:22:52 14.125°C 75.3125% 3.3V v5 52.1188 / 5.07626 14616 ttn.v3 0.103km -105 1.5 868.1MHz, SF9BW125, 4/5CR
- -112 1.25 868.1MHz, SF9BW125, 4/5CR
2026-05-07 22:07:32 14.375°C 74.4375% 3.3V v5 52.1188 / 5.07626 14615 ttn.v3 0.103km -102 4.75 867.1MHz, SF9BW125, 4/5CR
- -113 2 867.1MHz, SF9BW125, 4/5CR
2026-05-07 21:52:12 14.625°C 72.1875% 3.3V v5 52.1188 / 5.07626 14614 ttn.v3 - -109 -1.5 868.5MHz, SF9BW125, 4/5CR
2026-05-07 21:36:53 14.75°C 72.5625% 3.3V v5 52.1188 / 5.07626 14613 ttn.v3 0.103km -103 2 867.9MHz, SF9BW125, 4/5CR
- -113 1 867.9MHz, SF9BW125, 4/5CR
2026-05-07 21:21:33 15.0625°C 71.0625% 3.3V v5 52.1188 / 5.07626 14612 ttn.v3 - -111 1.75 868.3MHz, SF9BW125, 4/5CR
0.103km -103 -2 868.3MHz, SF9BW125, 4/5CR
2026-05-07 21:06:13 15.125°C 71.1875% 3.3V v5 52.1188 / 5.07626 14611 ttn.v3 - -108 3 867.7MHz, SF9BW125, 4/5CR
0.103km -94 -8.75 867.7MHz, SF9BW125, 4/5CR
2026-05-07 20:50:53 15.5°C 70.6875% 3.3V v5 52.1188 / 5.07626 14610 ttn.v3 0.103km -103 0.5 868.1MHz, SF9BW125, 4/5CR
2026-05-07 20:35:33 15.5°C 71.25% 3.3V v5 52.1188 / 5.07626 14609 ttn.v3 - -109 2.75 867.5MHz, SF9BW125, 4/5CR
0.103km -94 -9.25 867.5MHz, SF9BW125, 4/5CR
2026-05-07 20:20:13 15.5625°C 70.625% 3.3V v5 52.1188 / 5.07626 14608 ttn.v3 - -111 -0.75 868.5MHz, SF9BW125, 4/5CR
2026-05-07 20:04:53 15.875°C 69.6875% 3.3V v5 52.1188 / 5.07626 14607 ttn.v3 0.103km -101 4.75 867.3MHz, SF9BW125, 4/5CR
2026-05-07 19:49:32 16°C 67.375% 3.3V v5 52.1188 / 5.07626 14606 ttn.v3 - -111 -1.75 868.3MHz, SF9BW125, 4/5CR
0.103km -102 -2.25 868.3MHz, SF9BW125, 4/5CR
2026-05-07 19:34:12 16.1875°C 66% 3.3V v5 52.1188 / 5.07626 14605 ttn.v3 - -109 2.25 867.1MHz, SF9BW125, 4/5CR
0.103km -94 -9 867.1MHz, SF9BW125, 4/5CR
2026-05-07 19:18:52 16.5625°C 64.9375% 3.3V v5 52.1188 / 5.07626 14604 ttn.v3 - -111 1.75 868.1MHz, SF9BW125, 4/5CR
0.103km -105 -2 868.1MHz, SF9BW125, 4/5CR
2026-05-07 19:03:31 16.8125°C 62.375% 3.3V v5 52.1188 / 5.07626 14603 ttn.v3 - -113 0.75 867.9MHz, SF9BW125, 4/5CR
0.103km -95 -9 867.9MHz, SF9BW125, 4/5CR
2026-05-07 18:48:10 17.0625°C 61.25% 3.3V v5 52.1188 / 5.07626 14602 ttn.v3 0.103km -101 -0.75 868.5MHz, SF9BW125, 4/5CR
- -113 -1.25 868.5MHz, SF9BW125, 4/5CR
2026-05-07 18:32:49 17.875°C 59.5625% 3.3V v5 52.1188 / 5.07626 14601 ttn.v3 - -109 2.25 867.7MHz, SF9BW125, 4/5CR
0.103km -93 -6 867.7MHz, SF9BW125, 4/5CR
2026-05-07 18:17:28 18.4375°C 57.75% 3.3V v5 52.1188 / 5.07626 14600 ttn.v3 - -109 1.25 868.3MHz, SF9BW125, 4/5CR
2026-05-07 18:02:07 19.4375°C 54.6875% 3.3V v5 52.1188 / 5.07626 14599 ttn.v3 0.103km -100 2.75 867.5MHz, SF9BW125, 4/5CR
- -109 1 867.5MHz, SF9BW125, 4/5CR
2026-05-07 17:46:45 19.875°C 50.9375% 3.3V v5 52.1188 / 5.07626 14598 ttn.v3 0.103km -105 -1.75 868.1MHz, SF9BW125, 4/5CR
2026-05-07 17:31:23 19.125°C 54.0625% 3.3V v5 52.1188 / 5.07626 14597 ttn.v3 - -109 2 867.3MHz, SF9BW125, 4/5CR
0.103km -92 -5.75 867.3MHz, SF9BW125, 4/5CR
2026-05-07 17:16:02 18.9375°C 54.8125% 3.3V v5 52.1188 / 5.07626 14596 ttn.v3 - -109 2 868.5MHz, SF9BW125, 4/5CR
0.103km -105 -5.75 868.5MHz, SF9BW125, 4/5CR
2026-05-07 17:00:41 19.125°C 54.75% 3.3V v5 52.1188 / 5.07626 14595 ttn.v3 0.103km -101 5 867.1MHz, SF9BW125, 4/5CR
2026-05-07 16:45:19 18.5625°C 54.8125% 3.3V v5 52.1188 / 5.07626 14594 ttn.v3 0.103km -100 1.25 868.3MHz, SF9BW125, 4/5CR
- -109 1.25 868.3MHz, SF9BW125, 4/5CR
2026-05-07 16:29:58 19°C 51.5% 3.3V v5 52.1188 / 5.07626 14593 ttn.v3 - -110 -2.75 867.9MHz, SF9BW125, 4/5CR
0.103km -94 -6.25 867.9MHz, SF9BW125, 4/5CR
2026-05-07 16:15:36 19.6875°C 47.875% 3.3V v5 52.1188 / 5.07626 14592 ttn.v3 0.103km -102 3 868.1MHz, SF12BW125, 4/5CR
- -113 -1.75 868.1MHz, SF12BW125, 4/5CR
2026-05-07 15:59:15 20.5625°C 45.75% 3.3V v5 52.1194 / 5.07599 14591 ttn.v3 0.112km -101 3.75 867.7MHz, SF9BW125, 4/5CR
- -109 -1 867.7MHz, SF9BW125, 4/5CR
2026-05-07 15:43:52 23.375°C 38.3125% 3.3V v5 52.1194 / 5.07599 14590 ttn.v3 0.112km -103 -1 868.5MHz, SF9BW125, 4/5CR
- -110 -3.5 868.5MHz, SF9BW125, 4/5CR
2026-05-07 15:28:28 24.6875°C 35.375% 3.3V v5 52.1194 / 5.07599 14589 ttn.v3 - -109 0 867.5MHz, SF9BW125, 4/5CR
0.112km -105 -5.25 867.5MHz, SF9BW125, 4/5CR
2026-05-07 15:13:04 24.6875°C 36.875% 3.3V v5 52.1194 / 5.07599 14588 ttn.v3 0.112km -102 0.5 868.3MHz, SF9BW125, 4/5CR
- -114 -5 868.3MHz, SF9BW125, 4/5CR
2026-05-07 14:57:39 25.875°C 36.0625% 3.3V v5 52.1194 / 5.07599 14587 ttn.v3 - -111 1.5 867.3MHz, SF9BW125, 4/5CR
0.112km -101 -4 867.3MHz, SF9BW125, 4/5CR
2026-05-07 14:42:15 26.125°C 36.875% 3.3V v5 52.1194 / 5.07599 14586 ttn.v3 - -113 -6.25 868.1MHz, SF9BW125, 4/5CR
2026-05-07 14:26:51 24.6875°C 40.125% 3.3V v5 52.1194 / 5.07599 14585 ttn.v3 0.112km -102 3.75 867.1MHz, SF9BW125, 4/5CR
- -110 0.25 867.1MHz, SF9BW125, 4/5CR
2026-05-07 14:11:28 24.3125°C 43.8125% 3.3V v5 52.1194 / 5.07599 14584 ttn.v3 - -108 -2.25 868.5MHz, SF9BW125, 4/5CR
0.112km -93 -11.75 868.5MHz, SF9BW125, 4/5CR
2026-05-07 13:56:05 23.875°C 42.125% 3.3V v5 52.1194 / 5.07599 14583 ttn.v3 - -114 -6.75 867.9MHz, SF9BW125, 4/5CR
2026-05-07 13:40:42 23.9375°C 45.5625% 3.3V v5 52.1194 / 5.07599 14582 ttn.v3 - -109 -1.25 868.3MHz, SF9BW125, 4/5CR
0.112km -101 -8.25 868.3MHz, SF9BW125, 4/5CR
2026-05-07 13:25:19 22.0625°C 50.8125% 3.3V v5 52.1194 / 5.07599 14581 ttn.v3 - -112 -0.5 867.7MHz, SF9BW125, 4/5CR
2026-05-07 13:09:57 21.25°C 56.1875% 3.3V v5 52.1194 / 5.07599 14580 ttn.v3 - -114 -1.5 868.1MHz, SF9BW125, 4/5CR
2026-05-07 12:54:35 20.75°C 57.6875% 3.3V v5 52.1194 / 5.07599 14579 ttn.v3 - -108 0.25 867.5MHz, SF9BW125, 4/5CR
2026-05-07 12:39:14 19.25°C 61.1875% 3.3V v5 52.1194 / 5.07599 14578 ttn.v3 - -114 -5.5 868.5MHz, SF9BW125, 4/5CR
2026-05-07 12:23:53 18.5625°C 62.8125% 3.3V v5 52.1194 / 5.07599 14577 ttn.v3 - -109 0.25 867.3MHz, SF9BW125, 4/5CR
0.112km -92 -9 867.3MHz, SF9BW125, 4/5CR
2026-05-07 12:08:33 17.1875°C 64.375% 3.3V v5 52.1194 / 5.07599 14576 ttn.v3 - -112 -5.75 868.3MHz, SF9BW125, 4/5CR
0.112km -95 -11.75 868.3MHz, SF9BW125, 4/5CR
2026-05-07 11:53:13 16.1875°C 64.5625% 3.3V v5 52.1194 / 5.07599 14575 ttn.v3 - -113 -2.25 867.1MHz, SF9BW125, 4/5CR
0.112km -95 -4 867.1MHz, SF9BW125, 4/5CR
2026-05-07 11:37:53 15.0625°C 64.25% 3.3V v5 52.1194 / 5.07599 14574 ttn.v3 - -114 -1.25 868.1MHz, SF9BW125, 4/5CR
0.112km -95 -10 868.1MHz, SF9BW125, 4/5CR
2026-05-07 11:22:34 14.4375°C 64.0625% 3.3V v5 52.1194 / 5.07599 14573 ttn.v3 - -115 -5.75 867.9MHz, SF9BW125, 4/5CR
0.112km -94 -13 867.9MHz, SF9BW125, 4/5CR
2026-05-07 10:51:55 13.625°C 63.3125% 3.3V v5 52.1194 / 5.07599 14571 ttn.v3 0.112km -102 3.75 867.7MHz, SF9BW125, 4/5CR
- -109 0.25 867.7MHz, SF9BW125, 4/5CR
2026-05-07 10:36:36 13.25°C 63.4375% 3.3V v5 52.1194 / 5.07599 14570 ttn.v3 - -113 -2.25 868.3MHz, SF9BW125, 4/5CR
0.112km -93 -10.5 868.3MHz, SF9BW125, 4/5CR
2026-05-07 10:21:17 12.875°C 63.5625% 3.3V v5 52.1194 / 5.07599 14569 ttn.v3 0.112km -94 6 867.5MHz, SF9BW125, 4/5CR
- -111 0.75 867.5MHz, SF9BW125, 4/5CR
2026-05-07 10:05:59 12.5625°C 62.375% 3.3V v5 52.1194 / 5.07599 14568 ttn.v3 0.112km -101 4.5 868.1MHz, SF9BW125, 4/5CR
- -114 -0.75 868.1MHz, SF9BW125, 4/5CR
- -125 -12.75 868.1MHz, SF9BW125, 4/5CR
2026-05-07 09:50:40 12.1875°C 63.1875% 3.3V v5 52.1194 / 5.07599 14567 ttn.v3 - -111 3 867.3MHz, SF9BW125, 4/5CR
2026-05-07 09:35:22 11.75°C 63.125% 3.3V v5 52.1194 / 5.07599 14566 ttn.v3 - -111 2 868.5MHz, SF9BW125, 4/5CR
0.112km -99 1.5 868.5MHz, SF9BW125, 4/5CR
2026-05-07 09:20:03 11.375°C 61.9375% 3.3V v5 52.1194 / 5.07599 14565 ttn.v3 0.112km -97 6 867.1MHz, SF9BW125, 4/5CR
2026-05-07 09:04:45 10.9375°C 58.8125% 3.3V v5 52.1194 / 5.07599 14564 ttn.v3 0.112km -101 2.5 868.3MHz, SF9BW125, 4/5CR
2026-05-07 08:49:27 10.5°C 57.9375% 3.3V v5 52.1194 / 5.07599 14563 ttn.v3 0.112km -97 5 867.9MHz, SF9BW125, 4/5CR
2026-05-07 08:34:09 10.1875°C 56.8125% 3.3V v5 52.1194 / 5.07599 14562 ttn.v3 0.112km -100 2.25 868.1MHz, SF9BW125, 4/5CR
2026-05-07 08:18:52 9.75°C 56.6875% 3.3V v5 52.1194 / 5.07599 14561 ttn.v3 0.112km -97 6.25 867.7MHz, SF9BW125, 4/5CR
- -109 -0.75 867.7MHz, SF9BW125, 4/5CR
2026-05-07 08:03:34 9.4375°C 55.0625% 3.3V v5 52.1194 / 5.07599 14560 ttn.v3 - -109 2 868.5MHz, SF9BW125, 4/5CR
0.112km -99 1 868.5MHz, SF9BW125, 4/5CR
2026-05-07 07:48:17 9.125°C 54% 3.3V v5 52.1194 / 5.07599 14559 ttn.v3 0.112km -96 3 867.5MHz, SF9BW125, 4/5CR
- -108 -0.5 867.5MHz, SF9BW125, 4/5CR
2026-05-07 07:32:59 8.8125°C 53.1875% 3.3V v5 52.1194 / 5.07599 14558 ttn.v3 - -109 1.5 868.3MHz, SF9BW125, 4/5CR
0.112km -101 -1.25 868.3MHz, SF9BW125, 4/5CR
2026-05-07 07:17:42 8.6875°C 53% 3.3V v5 52.1194 / 5.07599 14557 ttn.v3 0.112km -96 3.75 867.3MHz, SF9BW125, 4/5CR
- -109 2 867.3MHz, SF9BW125, 4/5CR
2026-05-07 07:02:25 8.625°C 53.0625% 3.3V v5 52.1194 / 5.07599 14556 ttn.v3 0.112km -99 2.75 868.1MHz, SF9BW125, 4/5CR
- -109 0.5 868.1MHz, SF9BW125, 4/5CR
2026-05-07 06:47:08 8.4375°C 53% 3.3V v5 52.1194 / 5.07599 14555 ttn.v3 0.112km -96 4.75 867.1MHz, SF9BW125, 4/5CR
- -111 1 867.1MHz, SF9BW125, 4/5CR
2026-05-07 06:16:33 8.0625°C 53.4375% 3.3V v5 52.1194 / 5.07599 14553 ttn.v3 0.112km -97 4.5 867.9MHz, SF9BW125, 4/5CR
- -113 -0.5 867.9MHz, SF9BW125, 4/5CR
2026-05-07 06:01:16 7.9375°C 53.625% 3.3V v5 52.1194 / 5.07599 14552 ttn.v3 0.112km -99 3 868.3MHz, SF9BW125, 4/5CR
- -111 -1.75 868.3MHz, SF9BW125, 4/5CR
2026-05-07 05:45:59 7.875°C 54.125% 3.3V v5 52.1194 / 5.07599 14551 ttn.v3 0.112km -96 6 867.7MHz, SF9BW125, 4/5CR
- -111 2.25 867.7MHz, SF9BW125, 4/5CR
2026-05-07 05:30:42 7.875°C 54.625% 3.3V v5 52.1194 / 5.07599 14550 ttn.v3 0.112km -101 4 868.1MHz, SF9BW125, 4/5CR

Message count: 200
Node count: 1

Messages per node

Number of messages in list aboveNodes
200

Statistics per gateway

GatewayNumber of messagesNumber of nodesNodes
1801 (0.112km)
1641
41

Filter by dataset